createdAt,value
2018-12-12T00:00:48.140Z,29.20
2018-12-12T00:03:14.888Z,25.30
2018-12-12T00:05:41.656Z,32.73
2018-12-12T00:08:08.400Z,28.33
2018-12-12T00:10:35.148Z,25.30
2018-12-12T00:13:01.897Z,29.20
2018-12-12T00:15:28.662Z,23.07
2018-12-12T00:17:55.376Z,27.27
2018-12-12T00:20:22.125Z,27.17
2018-12-12T00:22:48.854Z,23.57
2018-12-12T00:25:15.638Z,25.47
2018-12-12T00:27:42.392Z,20.87
2018-12-12T00:30:09.144Z,29.60
2018-12-12T00:32:35.917Z,27.13
2018-12-12T00:35:02.892Z,28.03
2018-12-12T00:37:29.648Z,28.87
2018-12-12T00:39:56.373Z,23.20
2018-12-12T00:42:23.134Z,21.50
2018-12-12T00:44:49.863Z,24.97
2018-12-12T00:47:16.608Z,24.47
2018-12-12T00:49:43.348Z,27.90
2018-12-12T00:52:10.100Z,21.23
2018-12-12T00:54:36.837Z,27.10
2018-12-12T00:57:04.975Z,28.73
2018-12-12T00:59:31.725Z,29.37
2018-12-12T01:01:58.471Z,24.60
2018-12-12T01:04:25.217Z,29.37
2018-12-12T01:06:51.993Z,27.60
2018-12-12T01:09:18.743Z,29.07
2018-12-12T01:11:51.184Z,29.43
2018-12-12T01:14:17.925Z,23.60
2018-12-12T01:16:44.691Z,29.37
2018-12-12T01:19:11.436Z,26.20
2018-12-12T01:21:38.184Z,27.37
2018-12-12T01:24:04.912Z,26.47
2018-12-12T01:26:31.660Z,29.93
2018-12-12T01:28:58.400Z,23.67
2018-12-12T01:31:25.308Z,23.20
2018-12-12T01:33:52.052Z,24.50
2018-12-12T01:36:18.817Z,27.93
2018-12-12T01:38:45.557Z,26.60
2018-12-12T01:41:12.321Z,27.77
2018-12-12T01:43:39.093Z,30.47
2018-12-12T01:46:05.858Z,28.20
2018-12-12T01:48:32.600Z,29.35
2018-12-12T01:50:59.360Z,30.00
2018-12-12T01:53:26.096Z,29.87
2018-12-12T01:55:52.857Z,31.27
2018-12-12T01:58:19.585Z,27.83
2018-12-12T02:00:46.345Z,25.13
2018-12-12T02:03:13.076Z,27.93
2018-12-12T02:05:39.832Z,28.00
2018-12-12T02:08:06.563Z,24.00
2018-12-12T02:10:33.316Z,25.33
2018-12-12T02:13:11.497Z,26.00
2018-12-12T02:15:38.232Z,24.60
2018-12-12T02:18:05.003Z,24.07
2018-12-12T02:20:31.768Z,25.67
2018-12-12T02:22:58.544Z,28.67
2018-12-12T02:25:25.276Z,29.98
2018-12-12T02:27:52.037Z,25.40
2018-12-12T02:30:18.781Z,30.47
2018-12-12T02:32:45.527Z,28.93
2018-12-12T02:35:12.297Z,29.77
2018-12-12T02:37:39.057Z,33.60
2018-12-12T02:40:05.797Z,25.13
2018-12-12T02:42:32.568Z,25.90
2018-12-12T02:44:59.367Z,32.03
2018-12-12T02:47:26.117Z,30.77
2018-12-12T02:49:52.877Z,32.88
2018-12-12T02:52:19.632Z,29.10
2018-12-12T02:54:46.396Z,34.23
2018-12-12T02:57:13.247Z,34.80
2018-12-12T02:59:39.944Z,35.15
2018-12-12T03:02:06.712Z,35.67
2018-12-12T03:04:33.435Z,36.15
2018-12-12T03:07:00.208Z,35.40
2018-12-12T03:09:26.946Z,32.35
2018-12-12T03:11:53.716Z,29.87
2018-12-12T03:14:20.468Z,37.83
2018-12-12T03:16:47.226Z,38.53
2018-12-12T03:19:13.970Z,32.37
2018-12-12T03:21:40.748Z,31.27
2018-12-12T03:24:07.489Z,32.33
2018-12-12T03:26:34.232Z,30.27
2018-12-12T03:29:00.965Z,33.60
2018-12-12T03:31:27.771Z,34.23
2018-12-12T03:33:54.508Z,31.90
2018-12-12T03:36:21.301Z,29.27
2018-12-12T03:38:48.052Z,27.23
2018-12-12T03:41:14.809Z,29.53
2018-12-12T03:43:41.536Z,26.70
2018-12-12T03:46:08.288Z,31.47
2018-12-12T03:48:35.020Z,38.13
2018-12-12T03:51:01.770Z,32.97
2018-12-12T03:53:28.521Z,37.97
2018-12-12T03:55:55.284Z,39.27
2018-12-12T03:58:22.036Z,36.20
2018-12-12T04:00:48.833Z,37.70
2018-12-12T04:03:15.668Z,39.30
2018-12-12T04:05:42.433Z,35.70
2018-12-12T04:08:09.166Z,27.07
2018-12-12T04:10:35.912Z,29.47
2018-12-12T04:13:02.665Z,28.70
2018-12-12T04:15:29.420Z,30.27
2018-12-12T04:17:56.165Z,33.20
2018-12-12T04:20:22.924Z,31.37
2018-12-12T04:22:49.716Z,27.57
2018-12-12T04:25:16.442Z,26.67
2018-12-12T04:27:43.204Z,27.03
2018-12-12T04:30:10.138Z,26.90
2018-12-12T04:32:36.843Z,33.00
2018-12-12T04:35:03.596Z,32.10
2018-12-12T04:37:30.364Z,27.00
2018-12-12T04:39:57.126Z,22.90
2018-12-12T04:42:23.893Z,32.00
2018-12-12T04:44:50.649Z,35.17
2018-12-12T04:47:17.412Z,33.75
2018-12-12T04:49:44.157Z,30.80
2018-12-12T04:52:10.917Z,33.60
2018-12-12T04:54:37.668Z,29.63
2018-12-12T04:57:04.435Z,35.37
2018-12-12T04:59:31.160Z,27.07
2018-12-12T05:01:57.928Z,26.10
2018-12-12T05:04:24.680Z,29.33
2018-12-12T05:06:51.460Z,36.40
2018-12-12T05:09:18.195Z,30.75
2018-12-12T05:11:44.978Z,30.02
2018-12-12T05:14:11.700Z,33.10
2018-12-12T05:16:38.603Z,35.97
2018-12-12T05:19:05.419Z,31.30
2018-12-12T05:21:32.161Z,36.08
2018-12-12T05:23:59.004Z,32.57
2018-12-12T05:26:25.761Z,40.12
2018-12-12T05:28:52.509Z,36.00
2018-12-12T05:31:19.288Z,30.23
2018-12-12T05:33:46.038Z,31.40
2018-12-12T05:36:12.764Z,29.77
2018-12-12T05:38:39.532Z,31.20
2018-12-12T05:41:06.278Z,40.75
2018-12-12T05:43:33.081Z,32.80
2018-12-12T05:46:00.112Z,36.88
2018-12-12T05:48:26.936Z,35.20
2018-12-12T05:50:53.676Z,42.40
2018-12-12T05:53:20.424Z,35.67
2018-12-12T05:55:47.176Z,37.67
2018-12-12T05:58:14.279Z,35.33
2018-12-12T06:00:41.021Z,40.33
2018-12-12T06:03:07.752Z,34.40
2018-12-12T06:05:34.540Z,32.90
2018-12-12T06:08:01.313Z,38.07
2018-12-12T06:10:28.096Z,38.30
2018-12-12T06:12:54.845Z,35.03
2018-12-12T06:15:21.696Z,32.50
2018-12-12T06:17:48.468Z,33.90
2018-12-12T06:20:15.241Z,33.23
2018-12-12T06:22:41.996Z,32.73
2018-12-12T06:25:08.761Z,35.97
2018-12-12T06:27:35.508Z,26.80
2018-12-12T06:30:02.307Z,31.63
2018-12-12T06:32:29.108Z,28.92
2018-12-12T06:34:55.844Z,29.05
2018-12-12T06:37:22.660Z,29.20
2018-12-12T06:39:49.408Z,29.77
2018-12-12T06:42:16.168Z,37.07
2018-12-12T06:44:42.891Z,31.17
2018-12-12T06:47:09.651Z,39.93
2018-12-12T06:49:36.401Z,39.50
2018-12-12T06:52:03.159Z,40.10
2018-12-12T06:54:30.133Z,39.00
2018-12-12T06:56:56.889Z,49.00
2018-12-12T06:59:23.632Z,45.43
2018-12-12T07:01:50.393Z,37.43
2018-12-12T07:04:17.132Z,33.97
2018-12-12T07:06:44.020Z,40.13
2018-12-12T07:09:10.759Z,39.90
2018-12-12T07:11:37.536Z,33.40
2018-12-12T07:14:04.272Z,35.30
2018-12-12T07:16:31.060Z,39.20
2018-12-12T07:18:57.804Z,35.43
2018-12-12T07:21:24.556Z,31.43
2018-12-12T07:23:51.312Z,29.13
2018-12-12T07:26:18.060Z,30.43
2018-12-12T07:28:44.806Z,31.70
2018-12-12T07:31:11.564Z,43.60
2018-12-12T07:33:38.383Z,40.90
2018-12-12T07:36:05.137Z,40.90
2018-12-12T07:38:31.912Z,35.77
2018-12-12T07:40:58.720Z,41.98
2018-12-12T07:43:25.457Z,35.03
2018-12-12T07:45:52.242Z,38.70
2018-12-12T07:48:18.984Z,35.47
2018-12-12T07:50:45.708Z,32.87
2018-12-12T07:53:12.480Z,33.77
2018-12-12T07:55:39.230Z,39.07
2018-12-12T07:58:05.990Z,42.90
2018-12-12T08:00:32.731Z,42.50
2018-12-12T08:03:05.512Z,30.87
2018-12-12T08:05:26.241Z,37.67
2018-12-12T08:07:53.020Z,38.67
2018-12-12T08:10:19.761Z,33.63
2018-12-12T08:12:46.524Z,36.08
2018-12-12T08:15:13.281Z,34.00
2018-12-12T08:17:40.133Z,36.57
2018-12-12T08:20:06.881Z,31.30
2018-12-12T08:22:33.644Z,27.35
2018-12-12T08:25:00.384Z,22.87
2018-12-12T08:27:27.153Z,28.20
2018-12-12T08:29:53.928Z,25.07
2018-12-12T08:32:20.668Z,24.53
2018-12-12T08:34:47.445Z,20.50
2018-12-12T08:37:14.196Z,19.80
2018-12-12T08:39:40.972Z,28.97
2018-12-12T08:42:07.725Z,26.85
2018-12-12T08:44:34.500Z,27.45
2018-12-12T08:47:01.340Z,23.73
2018-12-12T08:49:28.145Z,27.15
2018-12-12T08:51:54.880Z,26.60
2018-12-12T08:54:21.633Z,27.43
2018-12-12T08:56:48.376Z,25.63
2018-12-12T08:59:15.144Z,24.77
2018-12-12T09:01:41.884Z,28.70
2018-12-12T09:04:08.648Z,25.90
2018-12-12T09:06:35.413Z,26.00
2018-12-12T09:09:02.320Z,25.20
2018-12-12T09:11:29.060Z,26.75
2018-12-12T09:13:55.796Z,26.10
2018-12-12T09:16:22.568Z,24.67
2018-12-12T09:18:49.308Z,25.30
2018-12-12T09:21:16.085Z,24.30
2018-12-12T09:23:42.832Z,33.27
2018-12-12T09:26:09.616Z,26.40
2018-12-12T09:28:36.356Z,23.10
2018-12-12T09:31:03.151Z,27.63
2018-12-12T09:33:29.897Z,26.17
2018-12-12T09:35:56.661Z,28.80
2018-12-12T09:38:23.453Z,27.60
2018-12-12T09:40:50.212Z,32.33
2018-12-12T09:43:16.956Z,28.37
2018-12-12T09:45:43.727Z,28.83
2018-12-12T09:48:10.536Z,26.90
2018-12-12T09:50:37.301Z,22.90
2018-12-12T09:53:04.056Z,23.50
2018-12-12T09:55:30.821Z,21.17
2018-12-12T09:57:57.560Z,26.43
2018-12-12T10:00:24.324Z,26.53
2018-12-12T10:02:51.060Z,25.97
2018-12-12T10:05:17.844Z,28.73
2018-12-12T10:07:44.587Z,24.17
2018-12-12T10:10:11.345Z,26.80
2018-12-12T10:12:38.099Z,26.17
2018-12-12T10:15:04.952Z,24.13
2018-12-12T10:17:31.713Z,22.60
2018-12-12T10:19:58.481Z,30.33
2018-12-12T10:22:25.238Z,28.20
2018-12-12T10:24:51.997Z,27.33
2018-12-12T10:27:18.756Z,30.50
2018-12-12T10:29:45.494Z,31.10
2018-12-12T10:32:12.292Z,25.27
2018-12-12T10:34:39.000Z,27.43
2018-12-12T10:37:05.756Z,27.20
2018-12-12T10:39:32.700Z,32.77
2018-12-12T10:41:59.460Z,30.20
2018-12-12T10:44:26.197Z,22.93
2018-12-12T10:46:52.958Z,21.97
2018-12-12T10:49:19.688Z,31.73
2018-12-12T10:51:46.450Z,26.30
2018-12-12T10:54:13.197Z,24.53
2018-12-12T10:56:39.959Z,26.17
2018-12-12T10:59:06.692Z,27.03
2018-12-12T11:01:39.309Z,21.47
2018-12-12T11:04:06.061Z,25.23
2018-12-12T11:06:32.819Z,18.17
2018-12-12T11:08:59.544Z,22.47
2018-12-12T11:11:26.296Z,23.70
2018-12-12T11:13:53.061Z,22.63
2018-12-12T11:16:19.817Z,25.57
2018-12-12T11:18:46.589Z,20.53
2018-12-12T11:21:13.356Z,17.30
2018-12-12T11:23:40.108Z,16.83
2018-12-12T11:26:06.886Z,16.50
2018-12-12T11:28:33.626Z,21.17
2018-12-12T11:31:00.381Z,15.53
2018-12-12T11:33:27.128Z,16.43
2018-12-12T11:35:53.883Z,15.10
2018-12-12T11:38:20.633Z,12.10
2018-12-12T11:40:47.374Z,14.47
2018-12-12T11:43:14.132Z,17.07
2018-12-12T11:45:40.879Z,8.50
2018-12-12T11:48:07.636Z,8.87
2018-12-12T11:50:34.372Z,14.30
2018-12-12T11:53:01.146Z,15.23
2018-12-12T11:55:27.907Z,8.87
2018-12-12T11:57:54.652Z,12.03
2018-12-12T12:00:21.420Z,11.60
2018-12-12T12:02:48.172Z,7.70
2018-12-12T12:05:14.919Z,11.60
2018-12-12T12:07:41.679Z,9.50
2018-12-12T12:10:09.487Z,12.77
2018-12-12T12:12:36.240Z,11.50
2018-12-12T12:15:03.465Z,9.30
2018-12-12T12:17:30.211Z,11.10
2018-12-12T12:19:56.990Z,9.70
2018-12-12T12:22:23.749Z,9.70
2018-12-12T12:24:50.480Z,11.20
2018-12-12T12:27:17.256Z,9.97
2018-12-12T12:29:44.005Z,9.73
2018-12-12T12:32:10.789Z,11.57
2018-12-12T12:34:37.535Z,10.80
2018-12-12T12:37:04.292Z,10.83
2018-12-12T12:39:31.040Z,11.20
2018-12-12T12:41:57.792Z,11.53
2018-12-12T12:44:24.647Z,14.60
2018-12-12T12:46:51.409Z,11.63
2018-12-12T12:49:18.172Z,12.07
2018-12-12T12:51:44.928Z,12.13
2018-12-12T12:54:11.712Z,10.50
2018-12-12T12:56:38.452Z,11.37
2018-12-12T12:59:05.209Z,11.27
2018-12-12T13:01:32.025Z,15.10
2018-12-12T13:04:00.971Z,7.73
2018-12-12T13:06:28.634Z,12.93
2018-12-12T13:08:55.452Z,9.70
2018-12-12T13:11:22.252Z,11.20
2018-12-12T13:13:49.315Z,11.97
2018-12-12T13:16:16.510Z,14.00
2018-12-12T13:18:43.321Z,14.27
2018-12-12T13:21:10.316Z,16.07
2018-12-12T13:23:37.152Z,10.90
2018-12-12T13:26:03.945Z,27.77
2018-12-12T13:28:30.700Z,16.47
2018-12-12T13:30:57.455Z,12.27
2018-12-12T13:33:24.207Z,17.57
2018-12-12T13:35:50.952Z,14.80
2018-12-12T13:38:17.712Z,12.07
2018-12-12T13:40:44.460Z,15.60
2018-12-12T13:43:11.220Z,17.63
2018-12-12T13:45:38.107Z,14.57
2018-12-12T13:48:04.869Z,14.50
2018-12-12T13:50:31.639Z,12.63
2018-12-12T13:52:58.392Z,12.10
2018-12-12T13:55:25.133Z,18.53
2018-12-12T13:57:51.917Z,11.10
2018-12-12T14:00:18.680Z,11.30
2018-12-12T14:02:45.452Z,14.93
2018-12-12T14:05:12.189Z,11.07
2018-12-12T14:07:38.968Z,12.17
2018-12-12T14:10:05.744Z,11.83
2018-12-12T14:12:32.494Z,11.10
2018-12-12T14:14:59.252Z,13.37
2018-12-12T14:17:25.992Z,14.45
2018-12-12T14:19:52.750Z,15.23
2018-12-12T14:22:19.487Z,9.80
2018-12-12T14:24:46.242Z,17.73
2018-12-12T14:27:13.000Z,11.70
2018-12-12T14:29:39.763Z,11.03
2018-12-12T14:32:06.520Z,13.03
2018-12-12T14:34:33.272Z,17.33
2018-12-12T14:37:00.008Z,9.43
2018-12-12T14:39:26.775Z,13.37
2018-12-12T14:41:53.528Z,14.77
2018-12-12T14:44:20.280Z,19.90
2018-12-12T14:46:47.045Z,14.10
2018-12-12T14:49:13.841Z,18.63
2018-12-12T14:51:40.580Z,15.47
2018-12-12T14:54:07.364Z,11.60
2018-12-12T14:56:34.211Z,14.93
2018-12-12T14:59:00.957Z,17.57
2018-12-12T15:01:27.697Z,12.53
2018-12-12T15:03:54.588Z,14.63
2018-12-12T15:06:21.356Z,13.03
2018-12-12T15:08:48.208Z,11.33
2018-12-12T15:11:14.944Z,14.90
2018-12-12T15:13:41.780Z,15.93
2018-12-12T15:16:08.560Z,14.37
2018-12-12T15:18:35.301Z,15.20
2018-12-12T15:21:02.051Z,17.30
2018-12-12T15:23:28.843Z,15.53
2018-12-12T15:25:55.588Z,17.77
2018-12-12T15:28:22.316Z,15.90
2018-12-12T15:30:49.184Z,14.23
2018-12-12T15:33:15.948Z,17.10
2018-12-12T15:35:42.712Z,14.53
2018-12-12T15:38:09.483Z,18.03
2018-12-12T15:40:36.257Z,20.23
2018-12-12T15:43:03.046Z,17.23
2018-12-12T15:45:29.929Z,16.83
2018-12-12T15:47:56.672Z,17.40
2018-12-12T15:50:23.492Z,15.13
2018-12-12T15:52:50.253Z,16.90
2018-12-12T15:55:16.998Z,16.40
2018-12-12T15:57:43.758Z,13.17
2018-12-12T16:00:10.551Z,16.73
2018-12-12T16:02:37.308Z,15.50
2018-12-12T16:05:04.196Z,17.00
2018-12-12T16:07:30.992Z,14.30
2018-12-12T16:09:57.749Z,18.77
2018-12-12T16:12:24.481Z,19.63
2018-12-12T16:14:51.332Z,13.53
2018-12-12T16:17:18.072Z,19.03
2018-12-12T16:19:44.864Z,16.90
2018-12-12T16:22:11.620Z,16.80
2018-12-12T16:24:38.557Z,13.10
2018-12-12T16:27:05.324Z,17.70
2018-12-12T16:29:32.168Z,15.23
2018-12-12T16:31:58.962Z,17.13
2018-12-12T16:34:25.736Z,17.53
2018-12-12T16:36:52.484Z,19.80
2018-12-12T16:39:19.235Z,16.30
2018-12-12T16:41:45.991Z,17.40
2018-12-12T16:44:12.730Z,14.03
2018-12-12T16:46:39.529Z,13.57
2018-12-12T16:49:06.396Z,15.07
2018-12-12T16:51:33.165Z,15.23
2018-12-12T16:53:59.971Z,13.70
2018-12-12T16:56:26.740Z,19.10
2018-12-12T16:58:53.556Z,16.90
2018-12-12T17:01:20.306Z,18.00
2018-12-12T17:03:47.120Z,17.10
2018-12-12T17:06:13.880Z,14.03
2018-12-12T17:08:40.633Z,16.80
2018-12-12T17:11:07.400Z,16.20
2018-12-12T17:13:34.200Z,17.50
2018-12-12T17:16:00.988Z,13.70
2018-12-12T17:18:27.788Z,16.00
2018-12-12T17:20:54.551Z,14.37
2018-12-12T17:23:21.276Z,20.03
2018-12-12T17:25:48.052Z,14.43
2018-12-12T17:28:14.812Z,15.33
2018-12-12T17:30:41.654Z,11.40
2018-12-12T17:33:08.384Z,15.80
2018-12-12T17:35:35.147Z,15.43
2018-12-12T17:38:01.892Z,17.60
2018-12-12T17:40:28.699Z,14.03
2018-12-12T17:42:55.492Z,12.43
2018-12-12T17:45:22.242Z,18.60
2018-12-12T17:47:48.980Z,13.53
2018-12-12T17:50:15.740Z,11.53
2018-12-12T17:52:42.488Z,13.97
2018-12-12T17:55:09.256Z,16.00
2018-12-12T17:57:36.060Z,13.30
2018-12-12T18:00:02.920Z,17.67
2018-12-12T18:02:29.709Z,13.70
2018-12-12T18:04:56.668Z,17.00
2018-12-12T18:07:23.438Z,12.50
2018-12-12T18:09:50.172Z,13.33
2018-12-12T18:12:16.932Z,10.80
2018-12-12T18:14:43.668Z,13.20
2018-12-12T18:17:10.417Z,11.70
2018-12-12T18:19:37.149Z,15.57
2018-12-12T18:22:03.915Z,11.50
2018-12-12T18:24:30.648Z,11.13
2018-12-12T18:26:57.401Z,9.83
2018-12-12T18:29:24.131Z,10.07
2018-12-12T18:31:50.901Z,14.40
2018-12-12T18:34:17.639Z,13.90
2018-12-12T18:36:44.407Z,10.40
2018-12-12T18:39:11.149Z,8.47
2018-12-12T18:41:37.903Z,10.90
2018-12-12T18:44:04.664Z,9.90
2018-12-12T18:46:31.424Z,11.00
2018-12-12T18:48:58.183Z,12.00
2018-12-12T18:51:24.925Z,10.37
2018-12-12T18:53:51.660Z,8.70
2018-12-12T18:56:18.531Z,10.50
2018-12-12T18:58:45.261Z,9.53
2018-12-12T19:01:12.016Z,10.87
2018-12-12T19:03:38.758Z,10.20
2018-12-12T19:06:05.524Z,13.20
2018-12-12T19:08:32.620Z,9.67
2018-12-12T19:11:00.426Z,8.37
2018-12-12T19:13:27.157Z,11.30
2018-12-12T19:15:53.920Z,8.70
2018-12-12T19:18:20.656Z,10.63
2018-12-12T19:20:47.416Z,11.03
2018-12-12T19:23:14.153Z,10.93
2018-12-12T19:25:40.906Z,13.10
2018-12-12T19:28:07.629Z,14.87
2018-12-12T19:30:34.391Z,13.90
2018-12-12T19:33:01.169Z,12.63
2018-12-12T19:35:27.935Z,9.50
2018-12-12T19:37:54.660Z,9.60
2018-12-12T19:40:21.383Z,12.57
2018-12-12T19:42:48.184Z,9.97
2018-12-12T19:45:14.928Z,10.00
2018-12-12T19:47:41.697Z,12.23
2018-12-12T19:50:08.488Z,11.10
2018-12-12T19:52:35.236Z,9.47
2018-12-12T19:55:01.981Z,9.33
2018-12-12T19:57:28.806Z,7.70
2018-12-12T19:59:55.528Z,12.50
2018-12-12T20:02:22.444Z,9.57
2018-12-12T20:04:49.188Z,11.63
2018-12-12T20:07:15.936Z,9.47
2018-12-12T20:09:42.677Z,12.77
2018-12-12T20:12:09.432Z,13.37
2018-12-12T20:14:36.228Z,9.60
2018-12-12T20:17:02.989Z,13.80
2018-12-12T20:19:29.730Z,9.70
2018-12-12T20:21:56.521Z,11.73
2018-12-12T20:24:23.330Z,9.40
2018-12-12T20:26:50.236Z,9.87
2018-12-12T20:29:16.934Z,11.17
2018-12-12T20:31:43.703Z,10.63
2018-12-12T20:34:10.436Z,8.70
2018-12-12T20:36:37.220Z,8.90
2018-12-12T20:39:05.687Z,12.43
2018-12-12T20:41:32.457Z,9.50
2018-12-12T20:43:59.208Z,9.90
2018-12-12T20:46:25.952Z,9.77
2018-12-12T20:48:52.676Z,8.67
2018-12-12T20:51:19.428Z,9.17
2018-12-12T20:53:46.160Z,8.50
2018-12-12T20:56:12.944Z,7.67
2018-12-12T20:58:39.676Z,8.80
2018-12-12T21:01:06.431Z,7.83
2018-12-12T21:03:33.183Z,6.40
2018-12-12T21:05:59.942Z,6.80
2018-12-12T21:08:26.708Z,8.73
2018-12-12T21:10:53.439Z,5.80
2018-12-12T21:13:20.268Z,5.07
2018-12-12T21:15:47.448Z,9.00
2018-12-12T21:18:14.289Z,5.30
2018-12-12T21:20:41.012Z,6.37
2018-12-12T21:23:07.771Z,7.17
2018-12-12T21:25:34.516Z,8.60
2018-12-12T21:28:01.256Z,7.00
2018-12-12T21:30:28.044Z,5.83
2018-12-12T21:32:54.791Z,7.23
2018-12-12T21:35:21.524Z,5.60
2018-12-12T21:37:48.328Z,5.20
2018-12-12T21:40:15.056Z,6.43
2018-12-12T21:42:41.795Z,4.80
2018-12-12T21:45:08.524Z,6.30
2018-12-12T21:47:35.268Z,4.90
2018-12-12T21:50:02.060Z,5.83
2018-12-12T21:52:28.809Z,4.90
2018-12-12T21:54:55.556Z,7.13
2018-12-12T21:57:22.297Z,6.07
2018-12-12T21:59:49.063Z,5.53
2018-12-12T22:02:16.600Z,6.93
2018-12-12T22:04:43.344Z,7.10
2018-12-12T22:07:10.093Z,6.93
2018-12-12T22:09:36.820Z,7.53
2018-12-12T22:12:03.596Z,7.60
2018-12-12T22:14:30.320Z,6.23
2018-12-12T22:16:57.070Z,8.33
2018-12-12T22:19:23.796Z,6.90
2018-12-12T22:21:50.539Z,7.10
2018-12-12T22:24:17.336Z,6.73
2018-12-12T22:26:44.097Z,7.97
2018-12-12T22:29:10.827Z,8.03
2018-12-12T22:31:37.574Z,8.30
2018-12-12T22:34:04.296Z,6.93
2018-12-12T22:36:31.046Z,5.47
2018-12-12T22:38:57.784Z,7.23
2018-12-12T22:41:24.548Z,5.10
2018-12-12T22:43:51.268Z,5.20
2018-12-12T22:46:18.000Z,5.93
2018-12-12T22:48:44.760Z,5.30
2018-12-12T22:51:11.495Z,5.70
2018-12-12T22:53:38.379Z,5.60
2018-12-12T22:56:05.149Z,3.90
2018-12-12T22:58:31.924Z,7.70
2018-12-12T23:01:09.412Z,5.37
2018-12-12T23:03:36.156Z,6.50
2018-12-12T23:06:02.884Z,6.67
2018-12-12T23:08:29.637Z,4.67
2018-12-12T23:10:56.376Z,5.37
2018-12-12T23:13:23.119Z,5.93
2018-12-12T23:15:49.841Z,4.90
2018-12-12T23:18:16.588Z,7.53
2018-12-12T23:20:43.369Z,8.00
2018-12-12T23:23:10.193Z,5.53
2018-12-12T23:25:36.921Z,6.20
2018-12-12T23:28:03.694Z,5.10
2018-12-12T23:30:30.416Z,5.93
2018-12-12T23:32:57.159Z,5.60
2018-12-12T23:35:24.006Z,5.47
2018-12-12T23:37:50.744Z,5.30
2018-12-12T23:40:17.468Z,4.80
2018-12-12T23:42:44.860Z,4.70
2018-12-12T23:45:10.989Z,4.40
2018-12-12T23:47:37.736Z,6.00
2018-12-12T23:50:04.636Z,6.50
2018-12-12T23:52:31.391Z,4.83
2018-12-12T23:54:58.189Z,4.83
2018-12-12T23:57:24.948Z,5.40
2018-12-12T23:59:51.724Z,6.20
